sensor_id;sensor_type;location;lat;lon;timestamp;temperature;humidity
52941;DHT22;62001;53.366;6.636;2022-12-26T00:01:09;8.20;99.90
52941;DHT22;62001;53.366;6.636;2022-12-26T00:03:36;8.30;99.90
52941;DHT22;62001;53.366;6.636;2022-12-26T00:06:02;8.30;99.90
52941;DHT22;62001;53.366;6.636;2022-12-26T00:08:28;8.20;99.90
52941;DHT22;62001;53.366;6.636;2022-12-26T00:10:54;8.20;99.90
52941;DHT22;62001;53.366;6.636;2022-12-26T00:13:20;8.20;99.90
52941;DHT22;62001;53.366;6.636;2022-12-26T00:15:46;8.20;99.90
52941;DHT22;62001;53.366;6.636;2022-12-26T00:18:12;8.20;99.90
52941;DHT22;62001;53.366;6.636;2022-12-26T00:20:38;8.20;99.90
52941;DHT22;62001;53.366;6.636;2022-12-26T00:23:04;8.20;99.90
52941;DHT22;62001;53.366;6.636;2022-12-26T00:25:29;8.20;99.90
52941;DHT22;62001;53.366;6.636;2022-12-26T00:27:57;8.20;99.90
52941;DHT22;62001;53.366;6.636;2022-12-26T00:30:26;8.20;99.90
52941;DHT22;62001;53.366;6.636;2022-12-26T00:32:52;8.20;99.90
52941;DHT22;62001;53.366;6.636;2022-12-26T00:35:17;8.20;99.90
52941;DHT22;62001;53.366;6.636;2022-12-26T00:37:43;8.20;99.90
52941;DHT22;62001;53.366;6.636;2022-12-26T00:40:10;8.20;99.90
52941;DHT22;62001;53.366;6.636;2022-12-26T00:42:36;8.20;99.90
52941;DHT22;62001;53.366;6.636;2022-12-26T00:45:02;8.20;99.90
52941;DHT22;62001;53.366;6.636;2022-12-26T00:47:28;8.20;99.90
52941;DHT22;62001;53.366;6.636;2022-12-26T00:49:53;8.20;99.90
52941;DHT22;62001;53.366;6.636;2022-12-26T00:52:19;8.20;99.90
52941;DHT22;62001;53.366;6.636;2022-12-26T00:54:45;8.20;99.90
52941;DHT22;62001;53.366;6.636;2022-12-26T00:57:11;8.20;99.90
52941;DHT22;62001;53.366;6.636;2022-12-26T00:59:37;8.20;99.90
52941;DHT22;62001;53.366;6.636;2022-12-26T01:02:02;8.20;99.90
52941;DHT22;62001;53.366;6.636;2022-12-26T01:04:48;8.30;99.90
52941;DHT22;62001;53.366;6.636;2022-12-26T01:07:14;8.30;99.90
52941;DHT22;62001;53.366;6.636;2022-12-26T01:09:40;8.20;99.90
52941;DHT22;62001;53.366;6.636;2022-12-26T01:12:06;8.30;99.90
52941;DHT22;62001;53.366;6.636;2022-12-26T01:14:32;8.30;99.90
52941;DHT22;62001;53.366;6.636;2022-12-26T01:16:57;8.30;99.90
52941;DHT22;62001;53.366;6.636;2022-12-26T01:19:23;8.30;99.90
52941;DHT22;62001;53.366;6.636;2022-12-26T01:21:49;8.30;99.90
52941;DHT22;62001;53.366;6.636;2022-12-26T01:24:15;8.30;99.90
52941;DHT22;62001;53.366;6.636;2022-12-26T01:26:41;8.30;99.90
52941;DHT22;62001;53.366;6.636;2022-12-26T01:29:08;8.30;99.90
52941;DHT22;62001;53.366;6.636;2022-12-26T01:31:34;8.30;99.90
52941;DHT22;62001;53.366;6.636;2022-12-26T01:34:00;8.30;99.90
52941;DHT22;62001;53.366;6.636;2022-12-26T01:36:25;8.30;99.90
52941;DHT22;62001;53.366;6.636;2022-12-26T01:38:51;8.30;99.90
52941;DHT22;62001;53.366;6.636;2022-12-26T01:41:17;8.30;99.90
52941;DHT22;62001;53.366;6.636;2022-12-26T01:43:51;8.30;99.90
52941;DHT22;62001;53.366;6.636;2022-12-26T01:46:21;8.30;99.90
52941;DHT22;62001;53.366;6.636;2022-12-26T01:48:49;8.30;99.90
52941;DHT22;62001;53.366;6.636;2022-12-26T01:51:17;8.30;99.90
52941;DHT22;62001;53.366;6.636;2022-12-26T01:53:49;8.30;99.90
52941;DHT22;62001;53.366;6.636;2022-12-26T01:56:25;8.30;99.90
52941;DHT22;62001;53.366;6.636;2022-12-26T01:58:57;8.30;99.90
52941;DHT22;62001;53.366;6.636;2022-12-26T02:01:27;8.40;99.90
52941;DHT22;62001;53.366;6.636;2022-12-26T02:03:55;8.30;99.90
52941;DHT22;62001;53.366;6.636;2022-12-26T02:06:39;8.30;99.90
52941;DHT22;62001;53.366;6.636;2022-12-26T02:09:07;8.30;99.90
52941;DHT22;62001;53.366;6.636;2022-12-26T02:11:40;8.30;99.90
52941;DHT22;62001;53.366;6.636;2022-12-26T02:14:07;8.40;99.90
52941;DHT22;62001;53.366;6.636;2022-12-26T02:16:35;8.40;99.90
52941;DHT22;62001;53.366;6.636;2022-12-26T02:19:03;8.30;99.90
52941;DHT22;62001;53.366;6.636;2022-12-26T02:27:04;8.40;99.90
52941;DHT22;62001;53.366;6.636;2022-12-26T02:29:53;8.40;99.90
52941;DHT22;62001;53.366;6.636;2022-12-26T02:49:17;8.30;99.90
52941;DHT22;62001;53.366;6.636;2022-12-26T02:57:42;8.30;99.90
52941;DHT22;62001;53.366;6.636;2022-12-26T03:00:31;8.30;99.90
52941;DHT22;62001;53.366;6.636;2022-12-26T03:03:26;8.30;99.90
52941;DHT22;62001;53.366;6.636;2022-12-26T03:06:16;8.30;99.90
52941;DHT22;62001;53.366;6.636;2022-12-26T03:09:10;8.30;99.90
52941;DHT22;62001;53.366;6.636;2022-12-26T03:12:25;8.30;99.90
52941;DHT22;62001;53.366;6.636;2022-12-26T03:15:14;8.30;99.90
52941;DHT22;62001;53.366;6.636;2022-12-26T03:17:49;8.30;99.90
52941;DHT22;62001;53.366;6.636;2022-12-26T03:20:25;8.30;99.90
52941;DHT22;62001;53.366;6.636;2022-12-26T03:22:55;8.40;99.90
52941;DHT22;62001;53.366;6.636;2022-12-26T03:28:21;8.30;99.90
52941;DHT22;62001;53.366;6.636;2022-12-26T03:30:47;8.40;99.90
52941;DHT22;62001;53.366;6.636;2022-12-26T03:33:24;8.40;99.90
52941;DHT22;62001;53.366;6.636;2022-12-26T03:39:18;8.40;99.90
52941;DHT22;62001;53.366;6.636;2022-12-26T03:49:11;8.30;99.90
52941;DHT22;62001;53.366;6.636;2022-12-26T03:52:03;8.30;99.90
52941;DHT22;62001;53.366;6.636;2022-12-26T03:57:50;8.40;99.90
52941;DHT22;62001;53.366;6.636;2022-12-26T04:00:36;8.40;99.90
52941;DHT22;62001;53.366;6.636;2022-12-26T04:03:24;8.40;99.90
52941;DHT22;62001;53.366;6.636;2022-12-26T04:06:17;8.40;99.90
52941;DHT22;62001;53.366;6.636;2022-12-26T04:09:14;8.50;99.90
52941;DHT22;62001;53.366;6.636;2022-12-26T04:12:00;8.50;99.90
52941;DHT22;62001;53.366;6.636;2022-12-26T04:15:00;8.50;99.90
52941;DHT22;62001;53.366;6.636;2022-12-26T04:20:43;8.50;99.90
52941;DHT22;62001;53.366;6.636;2022-12-26T04:23:17;8.50;99.90
52941;DHT22;62001;53.366;6.636;2022-12-26T04:26:11;8.50;99.90
52941;DHT22;62001;53.366;6.636;2022-12-26T04:28:58;8.60;99.90
52941;DHT22;62001;53.366;6.636;2022-12-26T04:32:11;8.60;99.90
52941;DHT22;62001;53.366;6.636;2022-12-26T04:35:00;8.60;99.90
52941;DHT22;62001;53.366;6.636;2022-12-26T04:37:46;8.60;99.90
52941;DHT22;62001;53.366;6.636;2022-12-26T04:40:36;8.60;99.90
52941;DHT22;62001;53.366;6.636;2022-12-26T04:43:22;8.60;99.90
52941;DHT22;62001;53.366;6.636;2022-12-26T04:46:07;8.70;99.90
52941;DHT22;62001;53.366;6.636;2022-12-26T04:48:44;8.60;99.90
52941;DHT22;62001;53.366;6.636;2022-12-26T04:51:28;8.70;99.90
52941;DHT22;62001;53.366;6.636;2022-12-26T04:53:54;8.60;99.90
52941;DHT22;62001;53.366;6.636;2022-12-26T04:56:20;8.70;99.90
52941;DHT22;62001;53.366;6.636;2022-12-26T04:58:46;8.70;99.90
52941;DHT22;62001;53.366;6.636;2022-12-26T05:01:12;8.70;99.90
52941;DHT22;62001;53.366;6.636;2022-12-26T05:03:56;8.70;99.90
52941;DHT22;62001;53.366;6.636;2022-12-26T05:06:40;8.70;99.90
52941;DHT22;62001;53.366;6.636;2022-12-26T05:09:25;8.70;99.90
52941;DHT22;62001;53.366;6.636;2022-12-26T05:12:01;8.70;99.90
52941;DHT22;62001;53.366;6.636;2022-12-26T05:14:27;8.70;99.90
52941;DHT22;62001;53.366;6.636;2022-12-26T05:16:53;8.80;99.90
52941;DHT22;62001;53.366;6.636;2022-12-26T05:19:38;8.80;99.90
52941;DHT22;62001;53.366;6.636;2022-12-26T05:22:23;8.80;99.90
52941;DHT22;62001;53.366;6.636;2022-12-26T05:25:35;8.80;99.90
52941;DHT22;62001;53.366;6.636;2022-12-26T05:28:20;8.80;99.90
52941;DHT22;62001;53.366;6.636;2022-12-26T05:31:05;8.80;99.90
52941;DHT22;62001;53.366;6.636;2022-12-26T05:33:31;8.80;99.90
52941;DHT22;62001;53.366;6.636;2022-12-26T05:36:17;8.90;99.90
52941;DHT22;62001;53.366;6.636;2022-12-26T05:38:43;8.90;99.90
52941;DHT22;62001;53.366;6.636;2022-12-26T05:41:09;8.90;99.90
52941;DHT22;62001;53.366;6.636;2022-12-26T05:43:35;8.90;99.90
52941;DHT22;62001;53.366;6.636;2022-12-26T05:46:01;8.90;99.90
52941;DHT22;62001;53.366;6.636;2022-12-26T05:48:27;8.90;99.90
52941;DHT22;62001;53.366;6.636;2022-12-26T05:51:00;8.80;99.90
52941;DHT22;62001;53.366;6.636;2022-12-26T05:53:27;8.80;99.90
52941;DHT22;62001;53.366;6.636;2022-12-26T05:55:53;8.70;99.90
52941;DHT22;62001;53.366;6.636;2022-12-26T05:58:19;8.70;99.90
52941;DHT22;62001;53.366;6.636;2022-12-26T06:00:45;8.70;99.90
52941;DHT22;62001;53.366;6.636;2022-12-26T06:03:11;8.60;99.90
52941;DHT22;62001;53.366;6.636;2022-12-26T06:05:37;8.60;99.90
52941;DHT22;62001;53.366;6.636;2022-12-26T06:08:03;8.60;99.90
52941;DHT22;62001;53.366;6.636;2022-12-26T06:10:29;8.50;99.90
52941;DHT22;62001;53.366;6.636;2022-12-26T06:12:55;8.60;99.90
52941;DHT22;62001;53.366;6.636;2022-12-26T06:15:21;8.60;99.90
52941;DHT22;62001;53.366;6.636;2022-12-26T06:17:47;8.60;99.90
52941;DHT22;62001;53.366;6.636;2022-12-26T06:20:13;8.70;99.90
52941;DHT22;62001;53.366;6.636;2022-12-26T06:22:39;8.60;99.90
52941;DHT22;62001;53.366;6.636;2022-12-26T06:25:06;8.70;99.90
52941;DHT22;62001;53.366;6.636;2022-12-26T06:27:32;8.70;99.90
52941;DHT22;62001;53.366;6.636;2022-12-26T06:29:58;8.70;99.90
52941;DHT22;62001;53.366;6.636;2022-12-26T06:32:23;8.70;99.90
52941;DHT22;62001;53.366;6.636;2022-12-26T06:34:49;8.70;99.90
52941;DHT22;62001;53.366;6.636;2022-12-26T06:37:15;8.70;99.90
52941;DHT22;62001;53.366;6.636;2022-12-26T06:39:41;8.70;99.90
52941;DHT22;62001;53.366;6.636;2022-12-26T06:42:07;8.70;99.90
52941;DHT22;62001;53.366;6.636;2022-12-26T06:44:34;8.70;99.90
52941;DHT22;62001;53.366;6.636;2022-12-26T06:47:00;8.70;99.90
52941;DHT22;62001;53.366;6.636;2022-12-26T06:49:25;8.70;99.90
52941;DHT22;62001;53.366;6.636;2022-12-26T06:51:52;8.70;99.90
52941;DHT22;62001;53.366;6.636;2022-12-26T06:54:18;8.70;99.90
52941;DHT22;62001;53.366;6.636;2022-12-26T06:56:44;8.70;99.90
52941;DHT22;62001;53.366;6.636;2022-12-26T06:59:10;8.70;99.90
52941;DHT22;62001;53.366;6.636;2022-12-26T07:01:36;8.70;99.90
52941;DHT22;62001;53.366;6.636;2022-12-26T07:04:02;8.80;99.90
52941;DHT22;62001;53.366;6.636;2022-12-26T07:06:33;8.80;99.90
52941;DHT22;62001;53.366;6.636;2022-12-26T07:09:02;8.80;99.90
52941;DHT22;62001;53.366;6.636;2022-12-26T07:11:31;8.70;99.90
52941;DHT22;62001;53.366;6.636;2022-12-26T07:13:57;8.70;99.90
52941;DHT22;62001;53.366;6.636;2022-12-26T07:16:23;8.80;99.90
52941;DHT22;62001;53.366;6.636;2022-12-26T07:18:56;8.70;99.90
52941;DHT22;62001;53.366;6.636;2022-12-26T07:21:23;8.70;99.90
52941;DHT22;62001;53.366;6.636;2022-12-26T07:23:50;8.80;99.90
52941;DHT22;62001;53.366;6.636;2022-12-26T07:26:16;8.80;99.90
52941;DHT22;62001;53.366;6.636;2022-12-26T07:28:42;8.80;99.90
52941;DHT22;62001;53.366;6.636;2022-12-26T07:31:08;8.80;99.90
52941;DHT22;62001;53.366;6.636;2022-12-26T07:33:34;8.80;99.90
52941;DHT22;62001;53.366;6.636;2022-12-26T07:36:04;8.80;99.90
52941;DHT22;62001;53.366;6.636;2022-12-26T07:38:32;8.80;99.90
52941;DHT22;62001;53.366;6.636;2022-12-26T07:40:58;8.90;99.90
52941;DHT22;62001;53.366;6.636;2022-12-26T07:43:24;8.90;99.90
52941;DHT22;62001;53.366;6.636;2022-12-26T07:45:51;8.90;99.90
52941;DHT22;62001;53.366;6.636;2022-12-26T07:48:17;8.90;99.90
52941;DHT22;62001;53.366;6.636;2022-12-26T07:50:43;8.90;99.90
52941;DHT22;62001;53.366;6.636;2022-12-26T07:53:12;8.90;99.90
52941;DHT22;62001;53.366;6.636;2022-12-26T07:55:38;8.90;99.90
52941;DHT22;62001;53.366;6.636;2022-12-26T07:58:04;8.80;99.90
52941;DHT22;62001;53.366;6.636;2022-12-26T08:00:30;8.80;99.90
52941;DHT22;62001;53.366;6.636;2022-12-26T08:02:56;8.80;99.90
52941;DHT22;62001;53.366;6.636;2022-12-26T08:05:22;8.80;99.90
52941;DHT22;62001;53.366;6.636;2022-12-26T08:07:48;8.80;99.90
52941;DHT22;62001;53.366;6.636;2022-12-26T08:10:15;8.80;99.90
52941;DHT22;62001;53.366;6.636;2022-12-26T08:12:41;8.80;99.90
52941;DHT22;62001;53.366;6.636;2022-12-26T08:15:08;8.80;99.90
52941;DHT22;62001;53.366;6.636;2022-12-26T08:17:36;8.80;99.90
52941;DHT22;62001;53.366;6.636;2022-12-26T08:20:02;8.80;99.90
52941;DHT22;62001;53.366;6.636;2022-12-26T08:22:28;8.80;99.90
52941;DHT22;62001;53.366;6.636;2022-12-26T08:24:54;8.80;99.90
52941;DHT22;62001;53.366;6.636;2022-12-26T08:27:20;8.80;99.90
52941;DHT22;62001;53.366;6.636;2022-12-26T08:29:46;8.80;99.90
52941;DHT22;62001;53.366;6.636;2022-12-26T08:32:12;8.80;99.90
52941;DHT22;62001;53.366;6.636;2022-12-26T08:34:38;8.80;99.90
52941;DHT22;62001;53.366;6.636;2022-12-26T08:37:04;8.90;99.90
52941;DHT22;62001;53.366;6.636;2022-12-26T08:39:30;8.90;99.90
52941;DHT22;62001;53.366;6.636;2022-12-26T08:41:56;8.90;99.90
52941;DHT22;62001;53.366;6.636;2022-12-26T08:44:21;8.90;99.90
52941;DHT22;62001;53.366;6.636;2022-12-26T08:46:47;9.00;99.90
52941;DHT22;62001;53.366;6.636;2022-12-26T08:49:13;9.00;99.90
52941;DHT22;62001;53.366;6.636;2022-12-26T08:51:39;9.00;99.90
52941;DHT22;62001;53.366;6.636;2022-12-26T08:54:05;9.00;99.90
52941;DHT22;62001;53.366;6.636;2022-12-26T08:56:31;9.00;99.90
52941;DHT22;62001;53.366;6.636;2022-12-26T08:58:57;9.00;99.90
52941;DHT22;62001;53.366;6.636;2022-12-26T09:01:28;9.00;99.90
52941;DHT22;62001;53.366;6.636;2022-12-26T09:03:56;9.00;99.90
52941;DHT22;62001;53.366;6.636;2022-12-26T09:06:22;9.00;99.90
52941;DHT22;62001;53.366;6.636;2022-12-26T09:08:49;9.00;99.90
52941;DHT22;62001;53.366;6.636;2022-12-26T09:11:17;9.00;99.90
52941;DHT22;62001;53.366;6.636;2022-12-26T09:13:45;9.00;99.90
52941;DHT22;62001;53.366;6.636;2022-12-26T09:18:39;9.00;99.90
52941;DHT22;62001;53.366;6.636;2022-12-26T09:21:08;9.00;99.90
52941;DHT22;62001;53.366;6.636;2022-12-26T09:23:35;9.00;99.90
52941;DHT22;62001;53.366;6.636;2022-12-26T09:26:19;9.00;99.90
52941;DHT22;62001;53.366;6.636;2022-12-26T09:28:45;9.10;99.90
52941;DHT22;62001;53.366;6.636;2022-12-26T09:31:23;9.10;99.90
52941;DHT22;62001;53.366;6.636;2022-12-26T09:33:50;9.10;99.90
52941;DHT22;62001;53.366;6.636;2022-12-26T09:36:20;9.10;99.90
52941;DHT22;62001;53.366;6.636;2022-12-26T09:38:47;9.10;99.90
52941;DHT22;62001;53.366;6.636;2022-12-26T09:49:33;9.10;99.90
52941;DHT22;62001;53.366;6.636;2022-12-26T09:52:03;9.20;99.90
52941;DHT22;62001;53.366;6.636;2022-12-26T09:54:38;9.20;99.90
52941;DHT22;62001;53.366;6.636;2022-12-26T09:57:15;9.20;99.90
52941;DHT22;62001;53.366;6.636;2022-12-26T09:59:51;9.10;99.90
52941;DHT22;62001;53.366;6.636;2022-12-26T10:02:21;8.90;99.90
52941;DHT22;62001;53.366;6.636;2022-12-26T10:04:47;8.90;99.90
52941;DHT22;62001;53.366;6.636;2022-12-26T10:10:11;8.80;99.90
52941;DHT22;62001;53.366;6.636;2022-12-26T10:12:47;8.70;99.90
52941;DHT22;62001;53.366;6.636;2022-12-26T10:15:37;8.60;99.90
52941;DHT22;62001;53.366;6.636;2022-12-26T10:28:52;8.20;99.90
52941;DHT22;62001;53.366;6.636;2022-12-26T10:31:25;8.10;99.90
52941;DHT22;62001;53.366;6.636;2022-12-26T10:34:06;8.10;99.90
52941;DHT22;62001;53.366;6.636;2022-12-26T10:36:39;8.10;99.90
52941;DHT22;62001;53.366;6.636;2022-12-26T10:39:15;8.10;99.90
52941;DHT22;62001;53.366;6.636;2022-12-26T10:41:46;8.00;99.90
52941;DHT22;62001;53.366;6.636;2022-12-26T10:44:13;8.00;99.90
52941;DHT22;62001;53.366;6.636;2022-12-26T10:49:27;7.80;99.90
52941;DHT22;62001;53.366;6.636;2022-12-26T10:51:55;7.80;99.90
52941;DHT22;62001;53.366;6.636;2022-12-26T10:54:23;7.80;99.90
52941;DHT22;62001;53.366;6.636;2022-12-26T10:56:51;7.80;99.90
52941;DHT22;62001;53.366;6.636;2022-12-26T10:59:25;7.70;99.90
52941;DHT22;62001;53.366;6.636;2022-12-26T11:01:54;7.70;99.90
52941;DHT22;62001;53.366;6.636;2022-12-26T11:04:24;7.60;99.90
52941;DHT22;62001;53.366;6.636;2022-12-26T11:06:52;7.60;99.90
52941;DHT22;62001;53.366;6.636;2022-12-26T11:11:53;7.40;99.90
52941;DHT22;62001;53.366;6.636;2022-12-26T11:14:40;7.30;99.90
52941;DHT22;62001;53.366;6.636;2022-12-26T11:17:08;7.30;99.90
52941;DHT22;62001;53.366;6.636;2022-12-26T11:19:42;7.40;99.90
52941;DHT22;62001;53.366;6.636;2022-12-26T11:22:28;7.40;99.90
52941;DHT22;62001;53.366;6.636;2022-12-26T11:27:41;7.60;99.90
52941;DHT22;62001;53.366;6.636;2022-12-26T11:30:31;7.80;99.90
52941;DHT22;62001;53.366;6.636;2022-12-26T11:33:22;7.80;99.90
52941;DHT22;62001;53.366;6.636;2022-12-26T11:36:07;7.70;99.90
52941;DHT22;62001;53.366;6.636;2022-12-26T11:41:37;7.60;99.90
52941;DHT22;62001;53.366;6.636;2022-12-26T11:46:40;7.50;99.90
52941;DHT22;62001;53.366;6.636;2022-12-26T11:49:23;7.50;99.90
52941;DHT22;62001;53.366;6.636;2022-12-26T11:51:50;7.50;99.90
52941;DHT22;62001;53.366;6.636;2022-12-26T11:56:49;7.40;99.90
52941;DHT22;62001;53.366;6.636;2022-12-26T11:59:24;7.40;99.90
52941;DHT22;62001;53.366;6.636;2022-12-26T12:02:23;7.40;99.90
52941;DHT22;62001;53.366;6.636;2022-12-26T12:04:52;7.40;99.90
52941;DHT22;62001;53.366;6.636;2022-12-26T12:23:48;7.30;99.90
52941;DHT22;62001;53.366;6.636;2022-12-26T12:29:11;7.30;99.90
52941;DHT22;62001;53.366;6.636;2022-12-26T12:45:18;7.30;99.90
52941;DHT22;62001;53.366;6.636;2022-12-26T12:50:57;7.20;99.90
52941;DHT22;62001;53.366;6.636;2022-12-26T12:53:31;7.20;99.90
52941;DHT22;62001;53.366;6.636;2022-12-26T12:56:13;7.20;99.90
52941;DHT22;62001;53.366;6.636;2022-12-26T13:01:48;7.10;99.90
52941;DHT22;62001;53.366;6.636;2022-12-26T13:07:09;7.10;99.90
52941;DHT22;62001;53.366;6.636;2022-12-26T13:09:39;7.10;99.90
52941;DHT22;62001;53.366;6.636;2022-12-26T13:12:13;7.00;99.90
52941;DHT22;62001;53.366;6.636;2022-12-26T13:15:07;7.00;99.90
52941;DHT22;62001;53.366;6.636;2022-12-26T13:17:55;6.90;99.90
52941;DHT22;62001;53.366;6.636;2022-12-26T13:26:13;7.00;99.90
52941;DHT22;62001;53.366;6.636;2022-12-26T13:28:52;7.00;99.90
52941;DHT22;62001;53.366;6.636;2022-12-26T13:31:19;7.00;99.90
52941;DHT22;62001;53.366;6.636;2022-12-26T13:33:45;7.00;99.90
52941;DHT22;62001;53.366;6.636;2022-12-26T13:41:28;7.00;99.90
52941;DHT22;62001;53.366;6.636;2022-12-26T13:49:33;7.10;99.90
52941;DHT22;62001;53.366;6.636;2022-12-26T14:00:17;6.80;99.90
52941;DHT22;62001;53.366;6.636;2022-12-26T14:09:08;6.50;99.90
52941;DHT22;62001;53.366;6.636;2022-12-26T14:19:29;6.30;99.90
52941;DHT22;62001;53.366;6.636;2022-12-26T14:22:23;6.20;99.90
52941;DHT22;62001;53.366;6.636;2022-12-26T14:30:27;6.20;99.90
52941;DHT22;62001;53.366;6.636;2022-12-26T14:41:10;6.10;99.90
52941;DHT22;62001;53.366;6.636;2022-12-26T14:46:57;5.90;99.90
52941;DHT22;62001;53.366;6.636;2022-12-26T14:49:39;5.90;99.90
52941;DHT22;62001;53.366;6.636;2022-12-26T14:54:50;5.80;99.90
52941;DHT22;62001;53.366;6.636;2022-12-26T15:03:20;5.70;99.90
52941;DHT22;62001;53.366;6.636;2022-12-26T15:05:50;5.70;99.90
52941;DHT22;62001;53.366;6.636;2022-12-26T15:31:25;5.10;99.90
52941;DHT22;62001;53.366;6.636;2022-12-26T15:34:04;5.00;99.90
52941;DHT22;62001;53.366;6.636;2022-12-26T15:41:47;4.80;99.90
52941;DHT22;62001;53.366;6.636;2022-12-26T15:47:14;4.80;99.90
52941;DHT22;62001;53.366;6.636;2022-12-26T16:01:48;4.50;99.90
52941;DHT22;62001;53.366;6.636;2022-12-26T16:04:48;4.40;99.90
52941;DHT22;62001;53.366;6.636;2022-12-26T16:07:36;4.30;99.90
52941;DHT22;62001;53.366;6.636;2022-12-26T16:15:32;4.20;99.90
52941;DHT22;62001;53.366;6.636;2022-12-26T16:18:21;4.10;99.90
52941;DHT22;62001;53.366;6.636;2022-12-26T16:20:52;4.00;99.90
52941;DHT22;62001;53.366;6.636;2022-12-26T16:23:39;4.00;99.90
52941;DHT22;62001;53.366;6.636;2022-12-26T16:26:05;4.00;99.90
52941;DHT22;62001;53.366;6.636;2022-12-26T16:28:41;4.00;99.90
52941;DHT22;62001;53.366;6.636;2022-12-26T16:31:11;3.90;99.90
52941;DHT22;62001;53.366;6.636;2022-12-26T16:33:42;3.90;99.90
52941;DHT22;62001;53.366;6.636;2022-12-26T16:36:10;3.80;99.90
52941;DHT22;62001;53.366;6.636;2022-12-26T16:38:38;3.80;99.90
52941;DHT22;62001;53.366;6.636;2022-12-26T16:41:28;3.80;99.90
52941;DHT22;62001;53.366;6.636;2022-12-26T16:43:56;3.80;99.90
52941;DHT22;62001;53.366;6.636;2022-12-26T16:46:27;3.70;99.90
52941;DHT22;62001;53.366;6.636;2022-12-26T16:48:59;3.70;99.90
52941;DHT22;62001;53.366;6.636;2022-12-26T16:51:46;3.70;99.90
52941;DHT22;62001;53.366;6.636;2022-12-26T16:56:50;3.60;99.90
52941;DHT22;62001;53.366;6.636;2022-12-26T16:59:20;3.60;99.90
52941;DHT22;62001;53.366;6.636;2022-12-26T17:01:53;3.50;99.90
52941;DHT22;62001;53.366;6.636;2022-12-26T17:04:22;3.50;99.90
52941;DHT22;62001;53.366;6.636;2022-12-26T17:07:04;3.50;99.90
52941;DHT22;62001;53.366;6.636;2022-12-26T17:09:38;3.50;99.90
52941;DHT22;62001;53.366;6.636;2022-12-26T17:12:07;3.50;99.90
52941;DHT22;62001;53.366;6.636;2022-12-26T17:14:46;3.50;99.90
52941;DHT22;62001;53.366;6.636;2022-12-26T17:17:28;3.50;99.90
52941;DHT22;62001;53.366;6.636;2022-12-26T17:19:56;3.50;99.90
52941;DHT22;62001;53.366;6.636;2022-12-26T17:22:32;3.60;99.90
52941;DHT22;62001;53.366;6.636;2022-12-26T17:27:45;3.60;99.90
52941;DHT22;62001;53.366;6.636;2022-12-26T17:30:29;3.60;99.90
52941;DHT22;62001;53.366;6.636;2022-12-26T17:33:01;3.60;99.90
52941;DHT22;62001;53.366;6.636;2022-12-26T17:35:30;3.60;99.90
52941;DHT22;62001;53.366;6.636;2022-12-26T17:38:00;3.50;99.90
52941;DHT22;62001;53.366;6.636;2022-12-26T17:40:33;3.50;99.90
52941;DHT22;62001;53.366;6.636;2022-12-26T17:43:16;3.50;99.90
52941;DHT22;62001;53.366;6.636;2022-12-26T17:45:44;3.50;99.90
52941;DHT22;62001;53.366;6.636;2022-12-26T17:48:11;3.40;99.90
52941;DHT22;62001;53.366;6.636;2022-12-26T17:50:44;3.50;99.90
52941;DHT22;62001;53.366;6.636;2022-12-26T17:53:35;3.40;99.90
52941;DHT22;62001;53.366;6.636;2022-12-26T17:56:16;3.40;99.90
52941;DHT22;62001;53.366;6.636;2022-12-26T17:58:42;3.30;99.90
52941;DHT22;62001;53.366;6.636;2022-12-26T18:01:09;3.30;99.90
52941;DHT22;62001;53.366;6.636;2022-12-26T18:03:34;3.30;99.90
52941;DHT22;62001;53.366;6.636;2022-12-26T18:06:00;3.30;99.90
52941;DHT22;62001;53.366;6.636;2022-12-26T18:08:30;3.20;99.90
52941;DHT22;62001;53.366;6.636;2022-12-26T18:10:57;3.20;99.90
52941;DHT22;62001;53.366;6.636;2022-12-26T18:13:23;3.20;99.90
52941;DHT22;62001;53.366;6.636;2022-12-26T18:15:49;3.20;99.90
52941;DHT22;62001;53.366;6.636;2022-12-26T18:20:53;3.20;99.90
52941;DHT22;62001;53.366;6.636;2022-12-26T18:23:19;3.20;99.90
52941;DHT22;62001;53.366;6.636;2022-12-26T18:25:45;3.20;99.90
52941;DHT22;62001;53.366;6.636;2022-12-26T18:28:12;3.20;99.90
52941;DHT22;62001;53.366;6.636;2022-12-26T18:30:39;3.20;99.90
52941;DHT22;62001;53.366;6.636;2022-12-26T18:33:05;3.20;99.90
52941;DHT22;62001;53.366;6.636;2022-12-26T18:35:31;3.20;99.90
52941;DHT22;62001;53.366;6.636;2022-12-26T18:37:57;3.20;99.90
52941;DHT22;62001;53.366;6.636;2022-12-26T18:42:54;3.10;99.90
52941;DHT22;62001;53.366;6.636;2022-12-26T18:45:20;3.20;99.90
52941;DHT22;62001;53.366;6.636;2022-12-26T18:47:45;3.20;99.90
52941;DHT22;62001;53.366;6.636;2022-12-26T18:50:13;3.10;99.90
52941;DHT22;62001;53.366;6.636;2022-12-26T18:52:40;3.20;99.90
52941;DHT22;62001;53.366;6.636;2022-12-26T18:55:06;3.20;99.90
52941;DHT22;62001;53.366;6.636;2022-12-26T18:57:32;3.20;99.90
52941;DHT22;62001;53.366;6.636;2022-12-26T18:59:58;3.30;99.90
52941;DHT22;62001;53.366;6.636;2022-12-26T19:02:25;3.30;99.90
52941;DHT22;62001;53.366;6.636;2022-12-26T19:04:54;3.40;99.90
52941;DHT22;62001;53.366;6.636;2022-12-26T19:07:24;3.60;99.90
52941;DHT22;62001;53.366;6.636;2022-12-26T19:09:53;3.70;99.90
52941;DHT22;62001;53.366;6.636;2022-12-26T19:12:25;3.70;99.90
52941;DHT22;62001;53.366;6.636;2022-12-26T19:14:54;3.80;99.90
52941;DHT22;62001;53.366;6.636;2022-12-26T19:17:20;3.80;99.90
52941;DHT22;62001;53.366;6.636;2022-12-26T19:19:46;3.80;99.90
52941;DHT22;62001;53.366;6.636;2022-12-26T19:22:14;3.90;99.90
52941;DHT22;62001;53.366;6.636;2022-12-26T19:24:43;3.90;99.90
52941;DHT22;62001;53.366;6.636;2022-12-26T19:27:11;3.90;99.90
52941;DHT22;62001;53.366;6.636;2022-12-26T19:29:39;4.00;99.90
52941;DHT22;62001;53.366;6.636;2022-12-26T19:32:05;4.00;99.90
52941;DHT22;62001;53.366;6.636;2022-12-26T19:34:31;4.00;99.90
52941;DHT22;62001;53.366;6.636;2022-12-26T19:36:57;4.00;99.90
52941;DHT22;62001;53.366;6.636;2022-12-26T19:39:22;4.00;99.90
52941;DHT22;62001;53.366;6.636;2022-12-26T19:41:48;4.00;99.90
52941;DHT22;62001;53.366;6.636;2022-12-26T19:44:14;4.00;99.90
52941;DHT22;62001;53.366;6.636;2022-12-26T19:46:40;3.90;99.90
52941;DHT22;62001;53.366;6.636;2022-12-26T19:49:06;3.90;99.90
52941;DHT22;62001;53.366;6.636;2022-12-26T19:51:32;3.90;99.90
52941;DHT22;62001;53.366;6.636;2022-12-26T19:53:58;3.90;99.90
52941;DHT22;62001;53.366;6.636;2022-12-26T19:56:26;3.90;99.90
52941;DHT22;62001;53.366;6.636;2022-12-26T19:58:52;3.80;99.90
52941;DHT22;62001;53.366;6.636;2022-12-26T20:01:27;3.80;99.90
52941;DHT22;62001;53.366;6.636;2022-12-26T20:04:02;3.70;99.90
52941;DHT22;62001;53.366;6.636;2022-12-26T20:06:29;3.70;99.90
52941;DHT22;62001;53.366;6.636;2022-12-26T20:08:58;3.60;99.90
52941;DHT22;62001;53.366;6.636;2022-12-26T20:11:28;3.60;99.90
52941;DHT22;62001;53.366;6.636;2022-12-26T20:13:55;3.60;99.90
52941;DHT22;62001;53.366;6.636;2022-12-26T20:16:23;3.60;99.90
52941;DHT22;62001;53.366;6.636;2022-12-26T20:18:50;3.60;99.90
52941;DHT22;62001;53.366;6.636;2022-12-26T20:21:16;3.70;99.90
52941;DHT22;62001;53.366;6.636;2022-12-26T20:23:43;3.80;99.90
52941;DHT22;62001;53.366;6.636;2022-12-26T20:26:15;3.80;99.90